sensor_id;sensor_type;location;lat;lon;timestamp;P1;durP1;ratioP1;P2;durP2;ratioP2
17451;SDS011;8843;48.838;9.324;2023-08-20T00:00:07;6.57;;;5.97;;
17451;SDS011;8843;48.838;9.324;2023-08-20T00:02:35;7.33;;;6.53;;
17451;SDS011;8843;48.838;9.324;2023-08-20T00:05:05;7.67;;;6.83;;
17451;SDS011;8843;48.838;9.324;2023-08-20T00:07:33;7.43;;;6.63;;
17451;SDS011;8843;48.838;9.324;2023-08-20T00:10:00;7.27;;;6.53;;
17451;SDS011;8843;48.838;9.324;2023-08-20T00:12:29;7.70;;;7.00;;
17451;SDS011;8843;48.838;9.324;2023-08-20T00:14:57;7.70;;;6.47;;
17451;SDS011;8843;48.838;9.324;2023-08-20T00:17:30;12.03;;;6.90;;
17451;SDS011;8843;48.838;9.324;2023-08-20T00:19:58;7.80;;;6.33;;
17451;SDS011;8843;48.838;9.324;2023-08-20T00:22:26;10.07;;;6.57;;
17451;SDS011;8843;48.838;9.324;2023-08-20T00:24:54;7.57;;;6.17;;
17451;SDS011;8843;48.838;9.324;2023-08-20T00:27:22;7.23;;;6.40;;
17451;SDS011;8843;48.838;9.324;2023-08-20T00:29:49;7.73;;;6.50;;
17451;SDS011;8843;48.838;9.324;2023-08-20T00:32:16;7.87;;;7.07;;
17451;SDS011;8843;48.838;9.324;2023-08-20T00:34:43;7.03;;;6.30;;
17451;SDS011;8843;48.838;9.324;2023-08-20T00:37:10;9.10;;;6.90;;
17451;SDS011;8843;48.838;9.324;2023-08-20T00:39:38;8.70;;;6.83;;
17451;SDS011;8843;48.838;9.324;2023-08-20T00:42:05;8.00;;;5.77;;
17451;SDS011;8843;48.838;9.324;2023-08-20T00:44:32;9.77;;;6.87;;
17451;SDS011;8843;48.838;9.324;2023-08-20T00:47:00;9.73;;;7.27;;
17451;SDS011;8843;48.838;9.324;2023-08-20T00:49:28;7.67;;;6.90;;
17451;SDS011;8843;48.838;9.324;2023-08-20T00:51:55;9.07;;;6.53;;
17451;SDS011;8843;48.838;9.324;2023-08-20T00:54:23;12.43;;;6.97;;
17451;SDS011;8843;48.838;9.324;2023-08-20T00:56:52;8.23;;;5.97;;
17451;SDS011;8843;48.838;9.324;2023-08-20T00:59:19;7.83;;;6.17;;
17451;SDS011;8843;48.838;9.324;2023-08-20T01:01:46;8.77;;;7.83;;
17451;SDS011;8843;48.838;9.324;2023-08-20T01:04:13;9.33;;;6.33;;
17451;SDS011;8843;48.838;9.324;2023-08-20T01:06:44;8.43;;;6.67;;
17451;SDS011;8843;48.838;9.324;2023-08-20T01:09:21;7.03;;;6.17;;
17451;SDS011;8843;48.838;9.324;2023-08-20T01:11:57;7.83;;;6.93;;
17451;SDS011;8843;48.838;9.324;2023-08-20T01:14:26;7.60;;;6.83;;
17451;SDS011;8843;48.838;9.324;2023-08-20T01:16:53;9.37;;;6.93;;
17451;SDS011;8843;48.838;9.324;2023-08-20T01:19:20;8.07;;;6.33;;
17451;SDS011;8843;48.838;9.324;2023-08-20T01:21:53;8.27;;;6.70;;
17451;SDS011;8843;48.838;9.324;2023-08-20T01:24:44;8.90;;;6.73;;
17451;SDS011;8843;48.838;9.324;2023-08-20T01:27:25;12.70;;;7.30;;
17451;SDS011;8843;48.838;9.324;2023-08-20T01:30:01;8.60;;;6.30;;
17451;SDS011;8843;48.838;9.324;2023-08-20T01:32:29;12.10;;;6.70;;
17451;SDS011;8843;48.838;9.324;2023-08-20T01:34:56;9.17;;;6.63;;
17451;SDS011;8843;48.838;9.324;2023-08-20T01:37:23;6.87;;;6.10;;
17451;SDS011;8843;48.838;9.324;2023-08-20T01:39:50;9.10;;;6.67;;
17451;SDS011;8843;48.838;9.324;2023-08-20T01:42:17;7.63;;;6.50;;
17451;SDS011;8843;48.838;9.324;2023-08-20T01:44:44;6.63;;;5.60;;
17451;SDS011;8843;48.838;9.324;2023-08-20T01:47:12;7.07;;;5.83;;
17451;SDS011;8843;48.838;9.324;2023-08-20T01:49:40;7.43;;;6.53;;
17451;SDS011;8843;48.838;9.324;2023-08-20T01:52:08;10.23;;;6.97;;
17451;SDS011;8843;48.838;9.324;2023-08-20T01:54:35;11.07;;;7.10;;
17451;SDS011;8843;48.838;9.324;2023-08-20T01:57:01;7.17;;;6.47;;
17451;SDS011;8843;48.838;9.324;2023-08-20T01:59:29;6.80;;;6.20;;
17451;SDS011;8843;48.838;9.324;2023-08-20T02:01:55;6.67;;;5.77;;
17451;SDS011;8843;48.838;9.324;2023-08-20T02:04:24;8.97;;;6.50;;
17451;SDS011;8843;48.838;9.324;2023-08-20T02:06:50;7.53;;;6.40;;
17451;SDS011;8843;48.838;9.324;2023-08-20T02:09:17;8.50;;;6.80;;
17451;SDS011;8843;48.838;9.324;2023-08-20T02:11:45;7.30;;;6.60;;
17451;SDS011;8843;48.838;9.324;2023-08-20T02:14:12;10.10;;;7.27;;
17451;SDS011;8843;48.838;9.324;2023-08-20T02:16:39;8.13;;;6.30;;
17451;SDS011;8843;48.838;9.324;2023-08-20T02:19:06;7.83;;;6.63;;
17451;SDS011;8843;48.838;9.324;2023-08-20T02:21:35;6.93;;;6.23;;
17451;SDS011;8843;48.838;9.324;2023-08-20T02:24:02;8.63;;;6.57;;
17451;SDS011;8843;48.838;9.324;2023-08-20T02:26:29;7.13;;;6.43;;
17451;SDS011;8843;48.838;9.324;2023-08-20T02:28:56;10.10;;;7.00;;
17451;SDS011;8843;48.838;9.324;2023-08-20T02:31:23;10.83;;;7.37;;
17451;SDS011;8843;48.838;9.324;2023-08-20T02:33:50;8.73;;;6.50;;
17451;SDS011;8843;48.838;9.324;2023-08-20T02:36:17;7.73;;;6.37;;
17451;SDS011;8843;48.838;9.324;2023-08-20T02:38:45;7.77;;;6.57;;
17451;SDS011;8843;48.838;9.324;2023-08-20T02:41:12;7.27;;;6.50;;
17451;SDS011;8843;48.838;9.324;2023-08-20T02:43:39;10.87;;;6.60;;
17451;SDS011;8843;48.838;9.324;2023-08-20T02:46:06;8.23;;;6.97;;
17451;SDS011;8843;48.838;9.324;2023-08-20T02:48:33;6.77;;;6.07;;
17451;SDS011;8843;48.838;9.324;2023-08-20T02:51:00;7.57;;;6.40;;
17451;SDS011;8843;48.838;9.324;2023-08-20T02:53:27;10.70;;;7.30;;
17451;SDS011;8843;48.838;9.324;2023-08-20T02:55:56;8.50;;;7.03;;
17451;SDS011;8843;48.838;9.324;2023-08-20T02:58:22;9.37;;;6.33;;
17451;SDS011;8843;48.838;9.324;2023-08-20T03:00:49;7.57;;;6.87;;
17451;SDS011;8843;48.838;9.324;2023-08-20T03:03:16;7.80;;;6.87;;
17451;SDS011;8843;48.838;9.324;2023-08-20T03:05:43;7.27;;;6.47;;
17451;SDS011;8843;48.838;9.324;2023-08-20T03:08:10;8.33;;;7.07;;
17451;SDS011;8843;48.838;9.324;2023-08-20T03:10:37;8.03;;;6.87;;
17451;SDS011;8843;48.838;9.324;2023-08-20T03:13:05;8.63;;;7.13;;
17451;SDS011;8843;48.838;9.324;2023-08-20T03:15:32;7.27;;;6.57;;
17451;SDS011;8843;48.838;9.324;2023-08-20T03:17:59;8.20;;;6.90;;
17451;SDS011;8843;48.838;9.324;2023-08-20T03:20:26;11.23;;;6.80;;
17451;SDS011;8843;48.838;9.324;2023-08-20T03:22:53;7.90;;;6.70;;
17451;SDS011;8843;48.838;9.324;2023-08-20T03:25:20;8.67;;;6.70;;
17451;SDS011;8843;48.838;9.324;2023-08-20T03:27:47;6.97;;;6.37;;
17451;SDS011;8843;48.838;9.324;2023-08-20T03:30:15;9.37;;;7.80;;
17451;SDS011;8843;48.838;9.324;2023-08-20T03:32:42;8.93;;;6.80;;
17451;SDS011;8843;48.838;9.324;2023-08-20T03:35:09;7.70;;;6.90;;
17451;SDS011;8843;48.838;9.324;2023-08-20T03:37:36;11.03;;;7.37;;
17451;SDS011;8843;48.838;9.324;2023-08-20T03:40:03;18.33;;;7.20;;
17451;SDS011;8843;48.838;9.324;2023-08-20T03:42:31;9.20;;;6.63;;
17451;SDS011;8843;48.838;9.324;2023-08-20T03:44:57;8.27;;;6.70;;
17451;SDS011;8843;48.838;9.324;2023-08-20T03:47:26;8.40;;;7.23;;
17451;SDS011;8843;48.838;9.324;2023-08-20T03:49:52;13.47;;;7.27;;
17451;SDS011;8843;48.838;9.324;2023-08-20T03:52:19;8.90;;;7.50;;
17451;SDS011;8843;48.838;9.324;2023-08-20T03:54:46;8.97;;;6.73;;
17451;SDS011;8843;48.838;9.324;2023-08-20T03:57:13;7.93;;;7.03;;
17451;SDS011;8843;48.838;9.324;2023-08-20T03:59:40;8.40;;;7.00;;
17451;SDS011;8843;48.838;9.324;2023-08-20T04:02:07;9.57;;;7.40;;
17451;SDS011;8843;48.838;9.324;2023-08-20T04:04:35;8.50;;;7.60;;
17451;SDS011;8843;48.838;9.324;2023-08-20T04:07:02;10.00;;;7.00;;
17451;SDS011;8843;48.838;9.324;2023-08-20T04:09:29;7.40;;;6.40;;
17451;SDS011;8843;48.838;9.324;2023-08-20T04:11:56;11.37;;;7.60;;
17451;SDS011;8843;48.838;9.324;2023-08-20T04:14:23;8.47;;;7.40;;
17451;SDS011;8843;48.838;9.324;2023-08-20T04:16:50;10.10;;;7.57;;
17451;SDS011;8843;48.838;9.324;2023-08-20T04:19:17;7.27;;;6.47;;
17451;SDS011;8843;48.838;9.324;2023-08-20T04:21:45;8.87;;;7.43;;
17451;SDS011;8843;48.838;9.324;2023-08-20T04:24:12;6.90;;;6.27;;
17451;SDS011;8843;48.838;9.324;2023-08-20T04:26:39;7.53;;;6.90;;
17451;SDS011;8843;48.838;9.324;2023-08-20T04:29:06;9.07;;;7.30;;
17451;SDS011;8843;48.838;9.324;2023-08-20T04:31:33;9.90;;;7.47;;
17451;SDS011;8843;48.838;9.324;2023-08-20T04:34:00;10.63;;;7.10;;
17451;SDS011;8843;48.838;9.324;2023-08-20T04:36:27;7.83;;;7.03;;
17451;SDS011;8843;48.838;9.324;2023-08-20T04:38:55;8.63;;;7.00;;
17451;SDS011;8843;48.838;9.324;2023-08-20T04:41:22;7.70;;;7.00;;
17451;SDS011;8843;48.838;9.324;2023-08-20T04:43:49;10.00;;;7.40;;
17451;SDS011;8843;48.838;9.324;2023-08-20T04:46:15;8.37;;;7.03;;
17451;SDS011;8843;48.838;9.324;2023-08-20T04:48:43;8.30;;;7.47;;
17451;SDS011;8843;48.838;9.324;2023-08-20T04:51:10;7.43;;;6.73;;
17451;SDS011;8843;48.838;9.324;2023-08-20T04:53:37;9.10;;;6.87;;
17451;SDS011;8843;48.838;9.324;2023-08-20T04:56:05;10.30;;;7.57;;
17451;SDS011;8843;48.838;9.324;2023-08-20T04:58:32;8.23;;;7.40;;
17451;SDS011;8843;48.838;9.324;2023-08-20T05:00:58;9.03;;;7.33;;
17451;SDS011;8843;48.838;9.324;2023-08-20T05:03:25;8.63;;;7.40;;
17451;SDS011;8843;48.838;9.324;2023-08-20T05:05:52;9.63;;;7.57;;
17451;SDS011;8843;48.838;9.324;2023-08-20T05:08:19;8.73;;;7.87;;
17451;SDS011;8843;48.838;9.324;2023-08-20T05:10:46;8.17;;;6.80;;
17451;SDS011;8843;48.838;9.324;2023-08-20T05:13:14;7.10;;;6.40;;
17451;SDS011;8843;48.838;9.324;2023-08-20T05:15:41;7.03;;;6.30;;
17451;SDS011;8843;48.838;9.324;2023-08-20T05:18:08;8.10;;;7.23;;
17451;SDS011;8843;48.838;9.324;2023-08-20T05:20:35;8.40;;;7.60;;
17451;SDS011;8843;48.838;9.324;2023-08-20T05:23:02;7.67;;;6.90;;
17451;SDS011;8843;48.838;9.324;2023-08-20T05:25:30;7.80;;;6.90;;
17451;SDS011;8843;48.838;9.324;2023-08-20T05:27:57;9.30;;;7.13;;
17451;SDS011;8843;48.838;9.324;2023-08-20T05:30:26;7.73;;;7.03;;
17451;SDS011;8843;48.838;9.324;2023-08-20T05:32:53;7.17;;;6.43;;
17451;SDS011;8843;48.838;9.324;2023-08-20T05:35:20;9.33;;;7.80;;
17451;SDS011;8843;48.838;9.324;2023-08-20T05:37:47;8.93;;;6.90;;
17451;SDS011;8843;48.838;9.324;2023-08-20T05:40:14;8.23;;;7.43;;
17451;SDS011;8843;48.838;9.324;2023-08-20T05:42:42;7.40;;;6.70;;
17451;SDS011;8843;48.838;9.324;2023-08-20T05:45:09;10.10;;;6.90;;
17451;SDS011;8843;48.838;9.324;2023-08-20T05:47:37;8.70;;;7.63;;
17451;SDS011;8843;48.838;9.324;2023-08-20T05:50:04;9.47;;;7.50;;
17451;SDS011;8843;48.838;9.324;2023-08-20T05:52:32;6.87;;;6.20;;
17451;SDS011;8843;48.838;9.324;2023-08-20T05:54:59;10.07;;;8.20;;
17451;SDS011;8843;48.838;9.324;2023-08-20T05:57:25;8.37;;;7.43;;
17451;SDS011;8843;48.838;9.324;2023-08-20T05:59:52;8.87;;;7.97;;
17451;SDS011;8843;48.838;9.324;2023-08-20T06:02:19;9.23;;;7.80;;
17451;SDS011;8843;48.838;9.324;2023-08-20T06:04:47;9.43;;;7.73;;
17451;SDS011;8843;48.838;9.324;2023-08-20T06:07:16;8.97;;;8.10;;
17451;SDS011;8843;48.838;9.324;2023-08-20T06:09:42;9.97;;;8.53;;
17451;SDS011;8843;48.838;9.324;2023-08-20T06:12:09;8.93;;;7.57;;
17451;SDS011;8843;48.838;9.324;2023-08-20T06:14:36;10.60;;;7.67;;
17451;SDS011;8843;48.838;9.324;2023-08-20T06:17:03;10.20;;;7.70;;
17451;SDS011;8843;48.838;9.324;2023-08-20T06:19:30;8.50;;;7.70;;
17451;SDS011;8843;48.838;9.324;2023-08-20T06:21:58;11.20;;;8.40;;
17451;SDS011;8843;48.838;9.324;2023-08-20T06:24:25;9.33;;;8.47;;
17451;SDS011;8843;48.838;9.324;2023-08-20T06:26:52;8.13;;;7.40;;
17451;SDS011;8843;48.838;9.324;2023-08-20T06:29:19;9.00;;;8.10;;
17451;SDS011;8843;48.838;9.324;2023-08-20T06:31:46;12.20;;;8.50;;
17451;SDS011;8843;48.838;9.324;2023-08-20T06:34:13;8.90;;;8.00;;
17451;SDS011;8843;48.838;9.324;2023-08-20T06:36:40;12.23;;;8.93;;
17451;SDS011;8843;48.838;9.324;2023-08-20T06:39:09;11.13;;;7.83;;
17451;SDS011;8843;48.838;9.324;2023-08-20T06:41:36;10.20;;;9.10;;
17451;SDS011;8843;48.838;9.324;2023-08-20T06:44:03;13.47;;;9.30;;
17451;SDS011;8843;48.838;9.324;2023-08-20T06:46:30;10.07;;;8.50;;
17451;SDS011;8843;48.838;9.324;2023-08-20T06:48:57;12.70;;;8.73;;
17451;SDS011;8843;48.838;9.324;2023-08-20T06:51:24;10.60;;;9.17;;
17451;SDS011;8843;48.838;9.324;2023-08-20T06:53:52;10.57;;;9.47;;
17451;SDS011;8843;48.838;9.324;2023-08-20T06:56:21;11.83;;;8.13;;
17451;SDS011;8843;48.838;9.324;2023-08-20T06:58:48;10.30;;;9.30;;
17451;SDS011;8843;48.838;9.324;2023-08-20T07:01:15;12.67;;;9.40;;
17451;SDS011;8843;48.838;9.324;2023-08-20T07:03:43;11.30;;;10.07;;
17451;SDS011;8843;48.838;9.324;2023-08-20T07:06:10;11.67;;;9.90;;
17451;SDS011;8843;48.838;9.324;2023-08-20T07:08:39;10.33;;;8.73;;
17451;SDS011;8843;48.838;9.324;2023-08-20T07:11:07;10.90;;;9.23;;
17451;SDS011;8843;48.838;9.324;2023-08-20T07:13:35;11.47;;;9.20;;
17451;SDS011;8843;48.838;9.324;2023-08-20T07:16:03;10.70;;;9.60;;
17451;SDS011;8843;48.838;9.324;2023-08-20T07:18:30;15.53;;;10.27;;
17451;SDS011;8843;48.838;9.324;2023-08-20T07:20:57;12.03;;;10.83;;
17451;SDS011;8843;48.838;9.324;2023-08-20T07:23:24;11.60;;;10.43;;
17451;SDS011;8843;48.838;9.324;2023-08-20T07:25:51;12.23;;;9.50;;
17451;SDS011;8843;48.838;9.324;2023-08-20T07:28:29;13.00;;;10.50;;
17451;SDS011;8843;48.838;9.324;2023-08-20T07:31:11;11.30;;;10.07;;
17451;SDS011;8843;48.838;9.324;2023-08-20T07:33:38;13.83;;;10.10;;
17451;SDS011;8843;48.838;9.324;2023-08-20T07:36:05;13.70;;;11.37;;
17451;SDS011;8843;48.838;9.324;2023-08-20T07:38:32;15.33;;;10.87;;
17451;SDS011;8843;48.838;9.324;2023-08-20T07:40:59;12.07;;;10.43;;
17451;SDS011;8843;48.838;9.324;2023-08-20T07:43:26;12.40;;;11.03;;
17451;SDS011;8843;48.838;9.324;2023-08-20T07:45:53;15.40;;;11.00;;
17451;SDS011;8843;48.838;9.324;2023-08-20T07:48:21;12.63;;;10.63;;
17451;SDS011;8843;48.838;9.324;2023-08-20T07:50:48;12.90;;;11.60;;
17451;SDS011;8843;48.838;9.324;2023-08-20T07:53:15;11.13;;;9.90;;
17451;SDS011;8843;48.838;9.324;2023-08-20T07:55:41;11.77;;;10.67;;
17451;SDS011;8843;48.838;9.324;2023-08-20T07:58:08;11.83;;;10.73;;
17451;SDS011;8843;48.838;9.324;2023-08-20T08:00:35;13.60;;;11.43;;
17451;SDS011;8843;48.838;9.324;2023-08-20T08:03:02;10.13;;;9.13;;
17451;SDS011;8843;48.838;9.324;2023-08-20T08:05:30;12.47;;;9.93;;
17451;SDS011;8843;48.838;9.324;2023-08-20T08:07:57;9.83;;;8.93;;
17451;SDS011;8843;48.838;9.324;2023-08-20T08:10:24;10.30;;;9.07;;
17451;SDS011;8843;48.838;9.324;2023-08-20T08:12:51;12.10;;;9.37;;
17451;SDS011;8843;48.838;9.324;2023-08-20T08:15:18;11.83;;;9.80;;
17451;SDS011;8843;48.838;9.324;2023-08-20T08:17:46;12.07;;;10.03;;
17451;SDS011;8843;48.838;9.324;2023-08-20T08:20:16;9.90;;;8.90;;
17451;SDS011;8843;48.838;9.324;2023-08-20T08:22:44;11.50;;;9.27;;
17451;SDS011;8843;48.838;9.324;2023-08-20T08:25:11;10.67;;;9.43;;
17451;SDS011;8843;48.838;9.324;2023-08-20T08:27:38;10.67;;;9.13;;
17451;SDS011;8843;48.838;9.324;2023-08-20T08:30:05;13.63;;;9.47;;
17451;SDS011;8843;48.838;9.324;2023-08-20T08:32:33;13.17;;;9.47;;
17451;SDS011;8843;48.838;9.324;2023-08-20T08:35:00;12.00;;;9.80;;
17451;SDS011;8843;48.838;9.324;2023-08-20T08:37:27;10.73;;;9.47;;
17451;SDS011;8843;48.838;9.324;2023-08-20T08:39:55;10.70;;;9.70;;
17451;SDS011;8843;48.838;9.324;2023-08-20T08:42:22;10.80;;;9.37;;
17451;SDS011;8843;48.838;9.324;2023-08-20T08:44:50;12.60;;;9.70;;
17451;SDS011;8843;48.838;9.324;2023-08-20T08:47:17;12.03;;;10.30;;
17451;SDS011;8843;48.838;9.324;2023-08-20T08:49:44;11.27;;;10.17;;
17451;SDS011;8843;48.838;9.324;2023-08-20T08:52:12;11.73;;;10.13;;
17451;SDS011;8843;48.838;9.324;2023-08-20T08:54:39;12.43;;;9.73;;
17451;SDS011;8843;48.838;9.324;2023-08-20T08:57:08;12.13;;;9.20;;
17451;SDS011;8843;48.838;9.324;2023-08-20T08:59:34;13.00;;;10.57;;
17451;SDS011;8843;48.838;9.324;2023-08-20T09:02:01;10.13;;;9.07;;
17451;SDS011;8843;48.838;9.324;2023-08-20T09:04:34;12.70;;;10.30;;
17451;SDS011;8843;48.838;9.324;2023-08-20T09:07:04;10.83;;;9.67;;
17451;SDS011;8843;48.838;9.324;2023-08-20T09:09:31;10.70;;;9.60;;
17451;SDS011;8843;48.838;9.324;2023-08-20T09:11:58;10.77;;;9.70;;
17451;SDS011;8843;48.838;9.324;2023-08-20T09:14:27;12.63;;;8.60;;
17451;SDS011;8843;48.838;9.324;2023-08-20T09:16:55;12.57;;;9.17;;
17451;SDS011;8843;48.838;9.324;2023-08-20T09:19:22;9.73;;;8.80;;
17451;SDS011;8843;48.838;9.324;2023-08-20T09:21:49;10.43;;;9.40;;
17451;SDS011;8843;48.838;9.324;2023-08-20T09:24:25;10.43;;;9.43;;
17451;SDS011;8843;48.838;9.324;2023-08-20T09:26:56;10.30;;;9.30;;
17451;SDS011;8843;48.838;9.324;2023-08-20T09:29:25;10.60;;;9.17;;
17451;SDS011;8843;48.838;9.324;2023-08-20T09:31:59;11.03;;;9.03;;
17451;SDS011;8843;48.838;9.324;2023-08-20T09:34:35;10.60;;;9.53;;
17451;SDS011;8843;48.838;9.324;2023-08-20T09:37:07;11.00;;;9.37;;
17451;SDS011;8843;48.838;9.324;2023-08-20T09:39:34;14.83;;;9.90;;
17451;SDS011;8843;48.838;9.324;2023-08-20T09:42:01;12.47;;;9.33;;
17451;SDS011;8843;48.838;9.324;2023-08-20T09:44:32;10.47;;;9.10;;
17451;SDS011;8843;48.838;9.324;2023-08-20T09:47:00;11.27;;;8.70;;
17451;SDS011;8843;48.838;9.324;2023-08-20T09:49:30;10.87;;;9.57;;
17451;SDS011;8843;48.838;9.324;2023-08-20T09:52:02;14.07;;;9.63;;
17451;SDS011;8843;48.838;9.324;2023-08-20T09:54:33;10.07;;;9.17;;
17451;SDS011;8843;48.838;9.324;2023-08-20T09:57:07;10.30;;;8.97;;
17451;SDS011;8843;48.838;9.324;2023-08-20T09:59:40;10.37;;;9.37;;
17451;SDS011;8843;48.838;9.324;2023-08-20T10:02:07;9.07;;;8.27;;
17451;SDS011;8843;48.838;9.324;2023-08-20T10:04:38;11.00;;;9.03;;
17451;SDS011;8843;48.838;9.324;2023-08-20T10:07:05;10.43;;;8.43;;
17451;SDS011;8843;48.838;9.324;2023-08-20T10:09:32;11.90;;;8.23;;
17451;SDS011;8843;48.838;9.324;2023-08-20T10:12:00;9.70;;;8.20;;
17451;SDS011;8843;48.838;9.324;2023-08-20T10:14:27;9.27;;;8.10;;
17451;SDS011;8843;48.838;9.324;2023-08-20T10:16:56;8.30;;;7.50;;
17451;SDS011;8843;48.838;9.324;2023-08-20T10:19:23;8.07;;;7.27;;
17451;SDS011;8843;48.838;9.324;2023-08-20T10:21:52;8.30;;;7.27;;
17451;SDS011;8843;48.838;9.324;2023-08-20T10:24:19;7.90;;;6.27;;
17451;SDS011;8843;48.838;9.324;2023-08-20T10:26:46;12.30;;;7.03;;
17451;SDS011;8843;48.838;9.324;2023-08-20T10:32:04;7.50;;;6.73;;
17451;SDS011;8843;48.838;9.324;2023-08-20T10:34:32;8.53;;;7.23;;
17451;SDS011;8843;48.838;9.324;2023-08-20T10:37:01;7.87;;;6.60;;
17451;SDS011;8843;48.838;9.324;2023-08-20T10:39:29;9.23;;;6.90;;
17451;SDS011;8843;48.838;9.324;2023-08-20T10:42:09;8.77;;;6.60;;
17451;SDS011;8843;48.838;9.324;2023-08-20T10:45:01;7.60;;;6.40;;
17451;SDS011;8843;48.838;9.324;2023-08-20T10:47:40;8.93;;;6.40;;
17451;SDS011;8843;48.838;9.324;2023-08-20T10:50:08;9.40;;;7.57;;
17451;SDS011;8843;48.838;9.324;2023-08-20T10:52:38;6.80;;;6.10;;
17451;SDS011;8843;48.838;9.324;2023-08-20T10:55:06;8.10;;;6.03;;
17451;SDS011;8843;48.838;9.324;2023-08-20T10:57:34;6.80;;;6.10;;
17451;SDS011;8843;48.838;9.324;2023-08-20T11:00:03;8.10;;;5.73;;
17451;SDS011;8843;48.838;9.324;2023-08-20T11:02:36;6.73;;;6.03;;
17451;SDS011;8843;48.838;9.324;2023-08-20T11:05:12;7.67;;;5.67;;
17451;SDS011;8843;48.838;9.324;2023-08-20T11:07:44;6.57;;;5.80;;
17451;SDS011;8843;48.838;9.324;2023-08-20T11:10:13;7.53;;;5.80;;
17451;SDS011;8843;48.838;9.324;2023-08-20T11:12:40;8.07;;;6.27;;
17451;SDS011;8843;48.838;9.324;2023-08-20T11:15:08;9.93;;;6.17;;
17451;SDS011;8843;48.838;9.324;2023-08-20T11:17:41;10.43;;;6.80;;
17451;SDS011;8843;48.838;9.324;2023-08-20T11:20:09;7.50;;;6.27;;
17451;SDS011;8843;48.838;9.324;2023-08-20T11:22:38;7.30;;;6.43;;
17451;SDS011;8843;48.838;9.324;2023-08-20T11:25:05;8.83;;;6.57;;
17451;SDS011;8843;48.838;9.324;2023-08-20T11:27:32;7.17;;;6.47;;
17451;SDS011;8843;48.838;9.324;2023-08-20T11:29:59;8.13;;;6.60;;
17451;SDS011;8843;48.838;9.324;2023-08-20T11:32:29;9.33;;;6.30;;
17451;SDS011;8843;48.838;9.324;2023-08-20T11:34:58;8.43;;;6.27;;
17451;SDS011;8843;48.838;9.324;2023-08-20T11:37:25;6.70;;;6.00;;
17451;SDS011;8843;48.838;9.324;2023-08-20T11:39:53;7.03;;;6.40;;
17451;SDS011;8843;48.838;9.324;2023-08-20T11:42:20;7.30;;;6.27;;
17451;SDS011;8843;48.838;9.324;2023-08-20T11:44:47;7.73;;;6.00;;
17451;SDS011;8843;48.838;9.324;2023-08-20T11:47:15;10.37;;;6.37;;
17451;SDS011;8843;48.838;9.324;2023-08-20T11:49:42;7.67;;;6.13;;
17451;SDS011;8843;48.838;9.324;2023-08-20T11:52:10;7.13;;;5.73;;
17451;SDS011;8843;48.838;9.324;2023-08-20T11:54:38;6.73;;;5.37;;
17451;SDS011;8843;48.838;9.324;2023-08-20T11:57:05;6.83;;;5.57;;
17451;SDS011;8843;48.838;9.324;2023-08-20T11:59:33;7.43;;;5.83;;
17451;SDS011;8843;48.838;9.324;2023-08-20T12:02:01;7.00;;;5.00;;
17451;SDS011;8843;48.838;9.324;2023-08-20T12:04:29;6.07;;;5.33;;
17451;SDS011;8843;48.838;9.324;2023-08-20T12:07:03;8.43;;;5.77;;
17451;SDS011;8843;48.838;9.324;2023-08-20T12:09:32;7.07;;;4.90;;
17451;SDS011;8843;48.838;9.324;2023-08-20T12:11:59;7.40;;;5.23;;
17451;SDS011;8843;48.838;9.324;2023-08-20T12:14:27;7.40;;;5.80;;
17451;SDS011;8843;48.838;9.324;2023-08-20T12:16:54;6.70;;;5.20;;
17451;SDS011;8843;48.838;9.324;2023-08-20T12:19:21;8.47;;;5.80;;
17451;SDS011;8843;48.838;9.324;2023-08-20T12:21:48;5.77;;;5.17;;
17451;SDS011;8843;48.838;9.324;2023-08-20T12:24:15;5.33;;;4.83;;
17451;SDS011;8843;48.838;9.324;2023-08-20T12:26:45;6.03;;;5.53;;
17451;SDS011;8843;48.838;9.324;2023-08-20T12:29:12;6.93;;;5.63;;
17451;SDS011;8843;48.838;9.324;2023-08-20T12:31:39;7.03;;;5.53;;
17451;SDS011;8843;48.838;9.324;2023-08-20T12:34:06;5.70;;;5.10;;
17451;SDS011;8843;48.838;9.324;2023-08-20T12:36:34;6.53;;;5.43;;
17451;SDS011;8843;48.838;9.324;2023-08-20T12:39:01;6.90;;;5.23;;
17451;SDS011;8843;48.838;9.324;2023-08-20T12:41:29;10.60;;;5.37;;
17451;SDS011;8843;48.838;9.324;2023-08-20T12:43:58;8.07;;;4.73;;
17451;SDS011;8843;48.838;9.324;2023-08-20T12:46:24;6.27;;;5.20;;
17451;SDS011;8843;48.838;9.324;2023-08-20T12:48:51;7.07;;;5.40;;
17451;SDS011;8843;48.838;9.324;2023-08-20T12:51:18;6.73;;;5.17;;
17451;SDS011;8843;48.838;9.324;2023-08-20T12:53:45;6.80;;;4.90;;
17451;SDS011;8843;48.838;9.324;2023-08-20T12:56:12;5.60;;;4.93;;
17451;SDS011;8843;48.838;9.324;2023-08-20T12:58:40;6.47;;;5.10;;
17451;SDS011;8843;48.838;9.324;2023-08-20T13:01:09;5.27;;;4.77;;
17451;SDS011;8843;48.838;9.324;2023-08-20T13:03:36;6.67;;;4.90;;
17451;SDS011;8843;48.838;9.324;2023-08-20T13:06:03;6.13;;;4.80;;
17451;SDS011;8843;48.838;9.324;2023-08-20T13:08:31;5.93;;;4.57;;
17451;SDS011;8843;48.838;9.324;2023-08-20T13:10:58;5.60;;;4.70;;
17451;SDS011;8843;48.838;9.324;2023-08-20T13:13:27;5.00;;;4.40;;
17451;SDS011;8843;48.838;9.324;2023-08-20T13:15:58;8.50;;;5.67;;
17451;SDS011;8843;48.838;9.324;2023-08-20T13:18:27;5.03;;;4.53;;
17451;SDS011;8843;48.838;9.324;2023-08-20T13:20:54;6.80;;;4.80;;
17451;SDS011;8843;48.838;9.324;2023-08-20T13:23:21;8.57;;;5.33;;
17451;SDS011;8843;48.838;9.324;2023-08-20T13:25:48;6.27;;;5.27;;
17451;SDS011;8843;48.838;9.324;2023-08-20T13:28:15;5.90;;;5.13;;
17451;SDS011;8843;48.838;9.324;2023-08-20T13:30:43;9.83;;;5.30;;
17451;SDS011;8843;48.838;9.324;2023-08-20T13:33:10;7.67;;;4.90;;
17451;SDS011;8843;48.838;9.324;2023-08-20T13:35:38;5.10;;;4.60;;
17451;SDS011;8843;48.838;9.324;2023-08-20T13:38:05;7.17;;;5.30;;
17451;SDS011;8843;48.838;9.324;2023-08-20T13:40:31;7.30;;;5.10;;
17451;SDS011;8843;48.838;9.324;2023-08-20T13:42:58;7.47;;;4.87;;
17451;SDS011;8843;48.838;9.324;2023-08-20T13:45:25;6.67;;;4.80;;
17451;SDS011;8843;48.838;9.324;2023-08-20T13:47:52;7.20;;;4.53;;
17451;SDS011;8843;48.838;9.324;2023-08-20T13:50:19;8.83;;;5.43;;
17451;SDS011;8843;48.838;9.324;2023-08-20T13:52:47;6.87;;;5.10;;
17451;SDS011;8843;48.838;9.324;2023-08-20T13:55:14;6.33;;;4.90;;
17451;SDS011;8843;48.838;9.324;2023-08-20T13:57:41;4.60;;;4.20;;
17451;SDS011;8843;48.838;9.324;2023-08-20T14:00:09;6.40;;;4.43;;
17451;SDS011;8843;48.838;9.324;2023-08-20T14:02:37;7.10;;;4.83;;
17451;SDS011;8843;48.838;9.324;2023-08-20T14:05:04;5.37;;;4.87;;
17451;SDS011;8843;48.838;9.324;2023-08-20T14:07:32;6.30;;;4.53;;
17451;SDS011;8843;48.838;9.324;2023-08-20T14:10:00;6.27;;;4.63;;
17451;SDS011;8843;48.838;9.324;2023-08-20T14:12:28;5.20;;;4.70;;
17451;SDS011;8843;48.838;9.324;2023-08-20T14:14:55;6.57;;;5.13;;
17451;SDS011;8843;48.838;9.324;2023-08-20T14:17:22;6.63;;;5.10;;
17451;SDS011;8843;48.838;9.324;2023-08-20T14:19:49;5.97;;;5.37;;
17451;SDS011;8843;48.838;9.324;2023-08-20T14:22:17;6.47;;;5.20;;
17451;SDS011;8843;48.838;9.324;2023-08-20T14:24:44;6.03;;;5.40;;
17451;SDS011;8843;48.838;9.324;2023-08-20T14:27:13;6.53;;;5.00;;
17451;SDS011;8843;48.838;9.324;2023-08-20T14:29:40;6.33;;;5.17;;
17451;SDS011;8843;48.838;9.324;2023-08-20T14:32:07;7.43;;;5.30;;
17451;SDS011;8843;48.838;9.324;2023-08-20T14:34:34;7.20;;;5.40;;
17451;SDS011;8843;48.838;9.324;2023-08-20T14:37:01;6.80;;;6.10;;
17451;SDS011;8843;48.838;9.324;2023-08-20T14:39:28;8.20;;;5.40;;
17451;SDS011;8843;48.838;9.324;2023-08-20T14:41:56;7.63;;;6.07;;
17451;SDS011;8843;48.838;9.324;2023-08-20T14:44:24;6.83;;;5.50;;
17451;SDS011;8843;48.838;9.324;2023-08-20T14:46:51;7.93;;;5.27;;
17451;SDS011;8843;48.838;9.324;2023-08-20T14:49:18;6.60;;;5.93;;
17451;SDS011;8843;48.838;9.324;2023-08-20T14:51:45;6.93;;;5.67;;
17451;SDS011;8843;48.838;9.324;2023-08-20T14:54:12;6.87;;;5.73;;
17451;SDS011;8843;48.838;9.324;2023-08-20T14:56:39;6.93;;;5.97;;
17451;SDS011;8843;48.838;9.324;2023-08-20T14:59:06;6.13;;;5.53;;
17451;SDS011;8843;48.838;9.324;2023-08-20T15:01:36;6.63;;;5.70;;